sensor_id;sensor_type;location;lat;lon;timestamp;pressure;altitude;pressure_sealevel;temperature;humidity
49216;BME280;45943;53.148;8.204;2022-12-24T00:00:23;100389.09;;;7.45;100.00
49216;BME280;45943;53.148;8.204;2022-12-24T00:02:49;100385.81;;;7.41;100.00
49216;BME280;45943;53.148;8.204;2022-12-24T00:05:16;100388.94;;;7.35;100.00
49216;BME280;45943;53.148;8.204;2022-12-24T00:07:42;100387.63;;;7.41;100.00
49216;BME280;45943;53.148;8.204;2022-12-24T00:10:08;100392.97;;;7.41;100.00
49216;BME280;45943;53.148;8.204;2022-12-24T00:12:35;100391.03;;;7.43;100.00
49216;BME280;45943;53.148;8.204;2022-12-24T00:15:02;100393.38;;;7.47;100.00
49216;BME280;45943;53.148;8.204;2022-12-24T00:17:29;100396.03;;;7.47;100.00
49216;BME280;45943;53.148;8.204;2022-12-24T00:19:55;100395.69;;;7.52;100.00
49216;BME280;45943;53.148;8.204;2022-12-24T00:22:21;100390.94;;;7.56;100.00
49216;BME280;45943;53.148;8.204;2022-12-24T00:24:47;100386.25;;;7.59;100.00
49216;BME280;45943;53.148;8.204;2022-12-24T00:27:13;100393.25;;;7.49;100.00
49216;BME280;45943;53.148;8.204;2022-12-24T00:29:39;100386.81;;;7.52;100.00
49216;BME280;45943;53.148;8.204;2022-12-24T00:32:05;100387.56;;;7.54;100.00
49216;BME280;45943;53.148;8.204;2022-12-24T00:34:35;100396.28;;;7.56;100.00
49216;BME280;45943;53.148;8.204;2022-12-24T00:37:02;100399.31;;;7.51;100.00
49216;BME280;45943;53.148;8.204;2022-12-24T00:39:29;100400.91;;;7.54;100.00
49216;BME280;45943;53.148;8.204;2022-12-24T00:41:55;100396.28;;;7.56;100.00
49216;BME280;45943;53.148;8.204;2022-12-24T00:44:21;100409.88;;;7.53;100.00
49216;BME280;45943;53.148;8.204;2022-12-24T00:46:47;100404.53;;;7.53;100.00
49216;BME280;45943;53.148;8.204;2022-12-24T00:49:13;100404.41;;;7.54;100.00
49216;BME280;45943;53.148;8.204;2022-12-24T00:51:39;100404.31;;;7.56;100.00
49216;BME280;45943;53.148;8.204;2022-12-24T00:54:05;100408.34;;;7.61;100.00
49216;BME280;45943;53.148;8.204;2022-12-24T00:56:31;100418.91;;;7.63;100.00
49216;BME280;45943;53.148;8.204;2022-12-24T00:58:58;100412.59;;;7.64;100.00
49216;BME280;45943;53.148;8.204;2022-12-24T01:01:24;100416.22;;;7.63;100.00
49216;BME280;45943;53.148;8.204;2022-12-24T01:03:51;100417.06;;;7.63;100.00
49216;BME280;45943;53.148;8.204;2022-12-24T01:06:18;100419.88;;;7.62;100.00
49216;BME280;45943;53.148;8.204;2022-12-24T01:08:45;100425.56;;;7.57;100.00
49216;BME280;45943;53.148;8.204;2022-12-24T01:11:15;100426.63;;;7.55;100.00
49216;BME280;45943;53.148;8.204;2022-12-24T01:13:41;100428.69;;;7.51;100.00
49216;BME280;45943;53.148;8.204;2022-12-24T01:16:14;100423.22;;;7.53;100.00
49216;BME280;45943;53.148;8.204;2022-12-24T01:18:42;100427.47;;;7.55;100.00
49216;BME280;45943;53.148;8.204;2022-12-24T01:21:08;100424.69;;;7.57;100.00
49216;BME280;45943;53.148;8.204;2022-12-24T01:23:34;100430.78;;;7.59;100.00
49216;BME280;45943;53.148;8.204;2022-12-24T01:26:01;100433.44;;;7.59;100.00
49216;BME280;45943;53.148;8.204;2022-12-24T01:28:29;100425.44;;;7.59;100.00
49216;BME280;45943;53.148;8.204;2022-12-24T01:30:56;100438.03;;;7.57;100.00
49216;BME280;45943;53.148;8.204;2022-12-24T01:33:22;100437.66;;;7.50;100.00
49216;BME280;45943;53.148;8.204;2022-12-24T01:35:48;100437.38;;;7.42;100.00
49216;BME280;45943;53.148;8.204;2022-12-24T01:38:14;100439.91;;;7.43;100.00
49216;BME280;45943;53.148;8.204;2022-12-24T01:40:40;100447.06;;;7.43;100.00
49216;BME280;45943;53.148;8.204;2022-12-24T01:43:27;100439.78;;;7.45;100.00
49216;BME280;45943;53.148;8.204;2022-12-24T01:46:02;100447.69;;;7.46;100.00
49216;BME280;45943;53.148;8.204;2022-12-24T01:53:57;100460.59;;;7.53;100.00
49216;BME280;45943;53.148;8.204;2022-12-24T01:56:28;100452.56;;;7.53;100.00
49216;BME280;45943;53.148;8.204;2022-12-24T01:58:56;100463.25;;;7.53;100.00
49216;BME280;45943;53.148;8.204;2022-12-24T02:01:27;100455.97;;;7.55;100.00
49216;BME280;45943;53.148;8.204;2022-12-24T02:03:53;100464.50;;;7.60;100.00
49216;BME280;45943;53.148;8.204;2022-12-24T02:06:19;100468.75;;;7.62;100.00
49216;BME280;45943;53.148;8.204;2022-12-24T02:08:46;100472.41;;;7.61;100.00
49216;BME280;45943;53.148;8.204;2022-12-24T02:11:22;100467.69;;;7.65;100.00
49216;BME280;45943;53.148;8.204;2022-12-24T02:13:55;100469.78;;;7.72;100.00
49216;BME280;45943;53.148;8.204;2022-12-24T02:21:53;100472.13;;;7.77;100.00
49216;BME280;45943;53.148;8.204;2022-12-24T02:24:31;100479.50;;;7.73;100.00
49216;BME280;45943;53.148;8.204;2022-12-24T02:30:22;100479.09;;;7.67;100.00
49216;BME280;45943;53.148;8.204;2022-12-24T02:38:27;100488.72;;;7.69;100.00
49216;BME280;45943;53.148;8.204;2022-12-24T02:40:58;100490.28;;;7.72;100.00
49216;BME280;45943;53.148;8.204;2022-12-24T02:43:30;100488.81;;;7.68;100.00
49216;BME280;45943;53.148;8.204;2022-12-24T02:46:01;100497.16;;;7.63;100.00
49216;BME280;45943;53.148;8.204;2022-12-24T02:48:33;100498.00;;;7.64;100.00
49216;BME280;45943;53.148;8.204;2022-12-24T02:51:04;100503.34;;;7.64;100.00
49216;BME280;45943;53.148;8.204;2022-12-24T02:53:32;100502.50;;;7.63;100.00
49216;BME280;45943;53.148;8.204;2022-12-24T02:59:06;100516.00;;;7.73;100.00
49216;BME280;45943;53.148;8.204;2022-12-24T03:01:52;100519.09;;;7.80;100.00
49216;BME280;45943;53.148;8.204;2022-12-24T03:04:32;100523.03;;;7.87;100.00
49216;BME280;45943;53.148;8.204;2022-12-24T03:09:55;100527.66;;;7.96;100.00
49216;BME280;45943;53.148;8.204;2022-12-24T03:12:51;100535.56;;;7.97;100.00
49216;BME280;45943;53.148;8.204;2022-12-24T03:15:22;100529.38;;;7.97;100.00
49216;BME280;45943;53.148;8.204;2022-12-24T03:17:51;100529.47;;;7.95;100.00
49216;BME280;45943;53.148;8.204;2022-12-24T03:20:23;100528.13;;;7.90;100.00
49216;BME280;45943;53.148;8.204;2022-12-24T03:22:56;100541.72;;;7.87;100.00
49216;BME280;45943;53.148;8.204;2022-12-24T03:25:23;100545.44;;;7.84;100.00
49216;BME280;45943;53.148;8.204;2022-12-24T03:27:51;100546.41;;;7.83;100.00
49216;BME280;45943;53.148;8.204;2022-12-24T03:30:17;100540.22;;;7.83;100.00
49216;BME280;45943;53.148;8.204;2022-12-24T03:32:45;100540.75;;;7.88;100.00
49216;BME280;45943;53.148;8.204;2022-12-24T03:35:11;100548.53;;;7.91;100.00
49216;BME280;45943;53.148;8.204;2022-12-24T03:37:37;100551.31;;;7.89;100.00
49216;BME280;45943;53.148;8.204;2022-12-24T03:40:04;100548.75;;;7.88;100.00
49216;BME280;45943;53.148;8.204;2022-12-24T03:42:31;100538.50;;;7.82;100.00
49216;BME280;45943;53.148;8.204;2022-12-24T03:44:57;100550.56;;;7.87;100.00
49216;BME280;45943;53.148;8.204;2022-12-24T03:47:23;100547.22;;;7.96;100.00
49216;BME280;45943;53.148;8.204;2022-12-24T03:49:49;100550.16;;;8.04;100.00
49216;BME280;45943;53.148;8.204;2022-12-24T03:52:15;100551.53;;;8.10;100.00
49216;BME280;45943;53.148;8.204;2022-12-24T03:54:40;100560.03;;;8.15;100.00
49216;BME280;45943;53.148;8.204;2022-12-24T03:57:06;100560.69;;;8.19;100.00
49216;BME280;45943;53.148;8.204;2022-12-24T03:59:33;100571.84;;;8.24;100.00
49216;BME280;45943;53.148;8.204;2022-12-24T04:01:59;100575.63;;;8.21;100.00
49216;BME280;45943;53.148;8.204;2022-12-24T04:04:25;100565.91;;;8.20;100.00
49216;BME280;45943;53.148;8.204;2022-12-24T04:06:51;100577.69;;;8.18;100.00
49216;BME280;45943;53.148;8.204;2022-12-24T04:09:17;100582.16;;;8.17;100.00
49216;BME280;45943;53.148;8.204;2022-12-24T04:11:43;100580.47;;;8.16;100.00
49216;BME280;45943;53.148;8.204;2022-12-24T04:14:09;100583.13;;;8.16;100.00
49216;BME280;45943;53.148;8.204;2022-12-24T04:16:35;100578.28;;;8.21;100.00
49216;BME280;45943;53.148;8.204;2022-12-24T04:19:01;100587.16;;;8.22;100.00
49216;BME280;45943;53.148;8.204;2022-12-24T04:21:27;100593.59;;;8.19;100.00
49216;BME280;45943;53.148;8.204;2022-12-24T04:23:53;100596.03;;;8.22;100.00
49216;BME280;45943;53.148;8.204;2022-12-24T04:26:19;100597.59;;;8.25;100.00
49216;BME280;45943;53.148;8.204;2022-12-24T04:28:45;100599.22;;;8.27;100.00
49216;BME280;45943;53.148;8.204;2022-12-24T04:31:12;100606.16;;;8.30;100.00
49216;BME280;45943;53.148;8.204;2022-12-24T04:33:40;100606.88;;;8.32;100.00
49216;BME280;45943;53.148;8.204;2022-12-24T04:36:07;100604.84;;;8.36;100.00
49216;BME280;45943;53.148;8.204;2022-12-24T04:38:35;100600.38;;;8.36;100.00
49216;BME280;45943;53.148;8.204;2022-12-24T04:41:01;100608.41;;;8.36;100.00
49216;BME280;45943;53.148;8.204;2022-12-24T04:43:29;100600.25;;;8.38;100.00
49216;BME280;45943;53.148;8.204;2022-12-24T04:45:56;100605.50;;;8.39;100.00
49216;BME280;45943;53.148;8.204;2022-12-24T04:48:28;100609.25;;;8.37;100.00
49216;BME280;45943;53.148;8.204;2022-12-24T04:50:54;100609.13;;;8.38;100.00
49216;BME280;45943;53.148;8.204;2022-12-24T04:53:20;100604.53;;;8.40;100.00
49216;BME280;45943;53.148;8.204;2022-12-24T04:55:46;100604.31;;;8.30;100.00
49216;BME280;45943;53.148;8.204;2022-12-24T04:58:12;100598.94;;;8.43;100.00
49216;BME280;45943;53.148;8.204;2022-12-24T05:00:38;100602.34;;;8.45;100.00
49216;BME280;45943;53.148;8.204;2022-12-24T05:03:05;100610.03;;;8.50;100.00
49216;BME280;45943;53.148;8.204;2022-12-24T05:05:31;100611.72;;;8.51;100.00
49216;BME280;45943;53.148;8.204;2022-12-24T05:07:57;100619.50;;;8.54;100.00
49216;BME280;45943;53.148;8.204;2022-12-24T05:10:23;100615.13;;;8.53;100.00
49216;BME280;45943;53.148;8.204;2022-12-24T05:12:49;100616.81;;;8.54;100.00
49216;BME280;45943;53.148;8.204;2022-12-24T05:15:15;100619.28;;;8.57;100.00
49216;BME280;45943;53.148;8.204;2022-12-24T05:17:41;100616.25;;;8.61;100.00
49216;BME280;45943;53.148;8.204;2022-12-24T05:20:07;100621.47;;;8.63;100.00
49216;BME280;45943;53.148;8.204;2022-12-24T05:22:33;100617.75;;;8.66;100.00
49216;BME280;45943;53.148;8.204;2022-12-24T05:25:17;100628.06;;;8.70;100.00
49216;BME280;45943;53.148;8.204;2022-12-24T05:28:02;100633.31;;;8.72;100.00
49216;BME280;45943;53.148;8.204;2022-12-24T05:30:28;100630.19;;;8.78;100.00
49216;BME280;45943;53.148;8.204;2022-12-24T05:32:54;100629.53;;;8.74;100.00
49216;BME280;45943;53.148;8.204;2022-12-24T05:35:20;100634.78;;;8.76;100.00
49216;BME280;45943;53.148;8.204;2022-12-24T05:37:46;100637.94;;;8.81;100.00
49216;BME280;45943;53.148;8.204;2022-12-24T05:40:12;100648.41;;;8.84;100.00
49216;BME280;45943;53.148;8.204;2022-12-24T05:42:38;100667.03;;;8.85;100.00
49216;BME280;45943;53.148;8.204;2022-12-24T05:45:04;100655.97;;;8.90;100.00
49216;BME280;45943;53.148;8.204;2022-12-24T05:47:31;100658.53;;;8.91;100.00
49216;BME280;45943;53.148;8.204;2022-12-24T05:49:57;100668.03;;;8.96;100.00
49216;BME280;45943;53.148;8.204;2022-12-24T05:52:23;100673.41;;;8.96;100.00
49216;BME280;45943;53.148;8.204;2022-12-24T05:54:48;100675.22;;;8.95;100.00
49216;BME280;45943;53.148;8.204;2022-12-24T05:57:15;100686.78;;;8.96;100.00
49216;BME280;45943;53.148;8.204;2022-12-24T05:59:41;100686.66;;;8.97;100.00
49216;BME280;45943;53.148;8.204;2022-12-24T06:02:07;100692.84;;;8.98;100.00
49216;BME280;45943;53.148;8.204;2022-12-24T06:04:33;100704.69;;;9.06;100.00
49216;BME280;45943;53.148;8.204;2022-12-24T06:06:59;100701.63;;;9.11;100.00
49216;BME280;45943;53.148;8.204;2022-12-24T06:09:25;100701.63;;;9.11;100.00
49216;BME280;45943;53.148;8.204;2022-12-24T06:11:51;100700.44;;;9.15;100.00
49216;BME280;45943;53.148;8.204;2022-12-24T06:14:17;100702.28;;;9.14;100.00
49216;BME280;45943;53.148;8.204;2022-12-24T06:16:43;100701.38;;;9.14;100.00
49216;BME280;45943;53.148;8.204;2022-12-24T06:19:09;100708.47;;;9.15;100.00
49216;BME280;45943;53.148;8.204;2022-12-24T06:21:35;100703.97;;;9.15;100.00
49216;BME280;45943;53.148;8.204;2022-12-24T06:24:01;100704.94;;;9.14;100.00
49216;BME280;45943;53.148;8.204;2022-12-24T06:26:26;100707.63;;;9.14;100.00
49216;BME280;45943;53.148;8.204;2022-12-24T06:28:52;100702.38;;;9.13;100.00
49216;BME280;45943;53.148;8.204;2022-12-24T06:31:20;100712.34;;;9.11;100.00
49216;BME280;45943;53.148;8.204;2022-12-24T06:33:47;100717.94;;;9.08;100.00
49216;BME280;45943;53.148;8.204;2022-12-24T06:36:18;100726.69;;;9.10;100.00
49216;BME280;45943;53.148;8.204;2022-12-24T06:38:46;100715.88;;;9.11;100.00
49216;BME280;45943;53.148;8.204;2022-12-24T06:41:13;100731.31;;;9.08;100.00
49216;BME280;45943;53.148;8.204;2022-12-24T06:43:42;100725.47;;;9.14;100.00
49216;BME280;45943;53.148;8.204;2022-12-24T06:46:09;100727.09;;;9.16;100.00
49216;BME280;45943;53.148;8.204;2022-12-24T06:48:35;100735.84;;;9.18;100.00
49216;BME280;45943;53.148;8.204;2022-12-24T06:51:02;100736.56;;;9.20;100.00
49216;BME280;45943;53.148;8.204;2022-12-24T06:53:28;100742.91;;;9.19;100.00
49216;BME280;45943;53.148;8.204;2022-12-24T06:56:04;100750.81;;;9.21;100.00
49216;BME280;45943;53.148;8.204;2022-12-24T06:58:32;100753.25;;;9.24;100.00
49216;BME280;45943;53.148;8.204;2022-12-24T07:01:00;100774.44;;;9.27;100.00
49216;BME280;45943;53.148;8.204;2022-12-24T07:03:27;100776.25;;;9.27;100.00
49216;BME280;45943;53.148;8.204;2022-12-24T07:05:53;100780.75;;;9.26;100.00
49216;BME280;45943;53.148;8.204;2022-12-24T07:08:19;100778.28;;;9.23;100.00
49216;BME280;45943;53.148;8.204;2022-12-24T07:10:47;100767.84;;;9.20;100.00
49216;BME280;45943;53.148;8.204;2022-12-24T07:13:14;100771.47;;;9.19;100.00
49216;BME280;45943;53.148;8.204;2022-12-24T07:15:40;100777.44;;;9.23;100.00
49216;BME280;45943;53.148;8.204;2022-12-24T07:18:07;100773.06;;;9.22;100.00
49216;BME280;45943;53.148;8.204;2022-12-24T07:20:33;100780.47;;;9.18;100.00
49216;BME280;45943;53.148;8.204;2022-12-24T07:22:59;100790.22;;;9.19;100.00
49216;BME280;45943;53.148;8.204;2022-12-24T07:25:25;100799.34;;;9.16;100.00
49216;BME280;45943;53.148;8.204;2022-12-24T07:27:51;100785.22;;;9.14;100.00
49216;BME280;45943;53.148;8.204;2022-12-24T07:30:17;100800.63;;;9.11;100.00
49216;BME280;45943;53.148;8.204;2022-12-24T07:32:42;100804.06;;;9.13;100.00
49216;BME280;45943;53.148;8.204;2022-12-24T07:35:09;100812.94;;;9.13;100.00
49216;BME280;45943;53.148;8.204;2022-12-24T07:37:35;100813.78;;;9.14;100.00
49216;BME280;45943;53.148;8.204;2022-12-24T07:40:01;100813.03;;;9.12;100.00
49216;BME280;45943;53.148;8.204;2022-12-24T07:42:30;100815.72;;;9.12;100.00
49216;BME280;45943;53.148;8.204;2022-12-24T07:44:56;100814.66;;;9.14;100.00
49216;BME280;45943;53.148;8.204;2022-12-24T07:47:22;100820.09;;;9.13;100.00
49216;BME280;45943;53.148;8.204;2022-12-24T07:49:48;100829.75;;;9.15;100.00
49216;BME280;45943;53.148;8.204;2022-12-24T07:52:14;100829.97;;;9.12;100.00
49216;BME280;45943;53.148;8.204;2022-12-24T07:54:40;100833.41;;;9.14;100.00
49216;BME280;45943;53.148;8.204;2022-12-24T07:57:06;100836.06;;;9.14;100.00
49216;BME280;45943;53.148;8.204;2022-12-24T07:59:32;100839.69;;;9.13;100.00
49216;BME280;45943;53.148;8.204;2022-12-24T08:01:58;100858.34;;;9.15;100.00
49216;BME280;45943;53.148;8.204;2022-12-24T08:04:24;100859.06;;;9.17;100.00
49216;BME280;45943;53.148;8.204;2022-12-24T08:06:50;100852.75;;;9.18;100.00
49216;BME280;45943;53.148;8.204;2022-12-24T08:09:16;100856.16;;;9.20;100.00
49216;BME280;45943;53.148;8.204;2022-12-24T08:11:42;100862.25;;;9.22;100.00
49216;BME280;45943;53.148;8.204;2022-12-24T08:14:08;100854.22;;;9.22;100.00
49216;BME280;45943;53.148;8.204;2022-12-24T08:16:34;100864.78;;;9.24;100.00
49216;BME280;45943;53.148;8.204;2022-12-24T08:19:00;100868.13;;;9.27;100.00
49216;BME280;45943;53.148;8.204;2022-12-24T08:21:26;100873.97;;;9.32;100.00
49216;BME280;45943;53.148;8.204;2022-12-24T08:23:52;100873.00;;;9.33;100.00
49216;BME280;45943;53.148;8.204;2022-12-24T08:26:18;100878.25;;;9.35;100.00
49216;BME280;45943;53.148;8.204;2022-12-24T08:28:44;100893.09;;;9.39;100.00
49216;BME280;45943;53.148;8.204;2022-12-24T08:31:10;100892.03;;;9.41;100.00
49216;BME280;45943;53.148;8.204;2022-12-24T08:33:36;100903.59;;;9.42;100.00
49216;BME280;45943;53.148;8.204;2022-12-24T08:36:02;100907.97;;;9.43;100.00
49216;BME280;45943;53.148;8.204;2022-12-24T08:38:28;100900.69;;;9.45;100.00
49216;BME280;45943;53.148;8.204;2022-12-24T08:40:54;100912.13;;;9.47;100.00
49216;BME280;45943;53.148;8.204;2022-12-24T08:43:21;100909.22;;;9.50;100.00
49216;BME280;45943;53.148;8.204;2022-12-24T08:45:50;100918.22;;;9.49;100.00
49216;BME280;45943;53.148;8.204;2022-12-24T08:48:16;100917.00;;;9.53;100.00
49216;BME280;45943;53.148;8.204;2022-12-24T08:50:42;100915.97;;;9.56;100.00
49216;BME280;45943;53.148;8.204;2022-12-24T08:53:08;100921.44;;;9.54;100.00
49216;BME280;45943;53.148;8.204;2022-12-24T08:55:35;100925.81;;;9.55;100.00
49216;BME280;45943;53.148;8.204;2022-12-24T08:58:02;100926.31;;;9.60;100.00
49216;BME280;45943;53.148;8.204;2022-12-24T09:00:28;100930.94;;;9.58;100.00
49216;BME280;45943;53.148;8.204;2022-12-24T09:02:54;100930.19;;;9.56;100.00
49216;BME280;45943;53.148;8.204;2022-12-24T09:05:21;100938.00;;;9.59;100.00
49216;BME280;45943;53.148;8.204;2022-12-24T09:07:47;100938.84;;;9.60;100.00
49216;BME280;45943;53.148;8.204;2022-12-24T09:10:13;100952.25;;;9.60;100.00
49216;BME280;45943;53.148;8.204;2022-12-24T09:12:39;100949.91;;;9.55;100.00
49216;BME280;45943;53.148;8.204;2022-12-24T09:15:05;100953.31;;;9.57;100.00
49216;BME280;45943;53.148;8.204;2022-12-24T09:17:33;100953.94;;;9.61;100.00
49216;BME280;45943;53.148;8.204;2022-12-24T09:19:59;100956.50;;;9.62;100.00
49216;BME280;45943;53.148;8.204;2022-12-24T09:22:25;100959.19;;;9.62;100.00
49216;BME280;45943;53.148;8.204;2022-12-24T09:24:54;100972.47;;;9.64;100.00
49216;BME280;45943;53.148;8.204;2022-12-24T09:27:20;100966.16;;;9.65;100.00
49216;BME280;45943;53.148;8.204;2022-12-24T09:29:47;100969.88;;;9.62;100.00
49216;BME280;45943;53.148;8.204;2022-12-24T09:32:12;100974.06;;;9.66;100.00
49216;BME280;45943;53.148;8.204;2022-12-24T09:34:38;100984.91;;;9.65;100.00
49216;BME280;45943;53.148;8.204;2022-12-24T09:37:04;100981.38;;;9.64;100.00
49216;BME280;45943;53.148;8.204;2022-12-24T09:39:30;100991.41;;;9.73;100.00
49216;BME280;45943;53.148;8.204;2022-12-24T09:44:51;100993.88;;;9.88;100.00
49216;BME280;45943;53.148;8.204;2022-12-24T09:50:03;101002.50;;;10.04;100.00
49216;BME280;45943;53.148;8.204;2022-12-24T09:52:46;101000.06;;;10.12;100.00
49216;BME280;45943;53.148;8.204;2022-12-24T09:55:33;101006.78;;;10.18;100.00
49216;BME280;45943;53.148;8.204;2022-12-24T09:58:05;101007.75;;;10.17;100.00
49216;BME280;45943;53.148;8.204;2022-12-24T10:00:40;101012.72;;;10.23;100.00
49216;BME280;45943;53.148;8.204;2022-12-24T10:03:15;101013.66;;;10.22;100.00
49216;BME280;45943;53.148;8.204;2022-12-24T10:05:44;101015.56;;;10.20;100.00
49216;BME280;45943;53.148;8.204;2022-12-24T10:11:26;101015.88;;;10.28;100.00
49216;BME280;45943;53.148;8.204;2022-12-24T10:28:49;101043.06;;;10.34;100.00
49216;BME280;45943;53.148;8.204;2022-12-24T10:31:22;101050.47;;;10.31;100.00
49216;BME280;45943;53.148;8.204;2022-12-24T10:33:58;101039.88;;;10.29;100.00
49216;BME280;45943;53.148;8.204;2022-12-24T10:36:28;101038.06;;;10.30;100.00
49216;BME280;45943;53.148;8.204;2022-12-24T10:38:55;101044.38;;;10.29;100.00
49216;BME280;45943;53.148;8.204;2022-12-24T10:41:22;101029.56;;;10.36;100.00
49216;BME280;45943;53.148;8.204;2022-12-24T10:43:50;101029.44;;;10.38;100.00
49216;BME280;45943;53.148;8.204;2022-12-24T10:46:22;101036.66;;;10.48;100.00
49216;BME280;45943;53.148;8.204;2022-12-24T10:48:57;101044.09;;;10.56;100.00
49216;BME280;45943;53.148;8.204;2022-12-24T10:51:36;101041.81;;;10.62;100.00
49216;BME280;45943;53.148;8.204;2022-12-24T10:54:14;101036.78;;;10.58;100.00
49216;BME280;45943;53.148;8.204;2022-12-24T10:56:43;101050.44;;;10.55;100.00
49216;BME280;45943;53.148;8.204;2022-12-24T11:02:33;101056.16;;;10.50;100.00
49216;BME280;45943;53.148;8.204;2022-12-24T11:05:01;101062.97;;;10.43;100.00
49216;BME280;45943;53.148;8.204;2022-12-24T11:07:32;101066.84;;;10.39;100.00
49216;BME280;45943;53.148;8.204;2022-12-24T11:10:05;101066.25;;;10.36;100.00
49216;BME280;45943;53.148;8.204;2022-12-24T11:12:33;101064.16;;;10.39;100.00
49216;BME280;45943;53.148;8.204;2022-12-24T11:15:03;101062.84;;;10.45;100.00
49216;BME280;45943;53.148;8.204;2022-12-24T11:17:42;101064.56;;;10.46;100.00
49216;BME280;45943;53.148;8.204;2022-12-24T11:20:17;101062.50;;;10.49;100.00
49216;BME280;45943;53.148;8.204;2022-12-24T11:22:49;101062.38;;;10.51;100.00
49216;BME280;45943;53.148;8.204;2022-12-24T11:25:20;101053.50;;;10.61;100.00
49216;BME280;45943;53.148;8.204;2022-12-24T11:27:49;101051.78;;;10.60;100.00
49216;BME280;45943;53.148;8.204;2022-12-24T11:30:29;101051.91;;;10.59;100.00
49216;BME280;45943;53.148;8.204;2022-12-24T11:35:25;101042.75;;;10.50;100.00
49216;BME280;45943;53.148;8.204;2022-12-24T11:40:27;101043.44;;;10.41;100.00
49216;BME280;45943;53.148;8.204;2022-12-24T11:43:00;101044.53;;;10.39;100.00
49216;BME280;45943;53.148;8.204;2022-12-24T11:45:28;101041.75;;;10.40;100.00
49216;BME280;45943;53.148;8.204;2022-12-24T11:47:56;101047.94;;;10.41;100.00
49216;BME280;45943;53.148;8.204;2022-12-24T12:03:50;101053.69;;;10.36;100.00
49216;BME280;45943;53.148;8.204;2022-12-24T12:09:09;101061.88;;;10.46;100.00
49216;BME280;45943;53.148;8.204;2022-12-24T12:11:41;101053.97;;;10.55;100.00
49216;BME280;45943;53.148;8.204;2022-12-24T12:14:13;101061.19;;;10.66;100.00
49216;BME280;45943;53.148;8.204;2022-12-24T12:16:47;101064.72;;;10.67;100.00
49216;BME280;45943;53.148;8.204;2022-12-24T12:19:41;101068.28;;;10.67;100.00
49216;BME280;45943;53.148;8.204;2022-12-24T12:22:21;101061.44;;;10.63;100.00
49216;BME280;45943;53.148;8.204;2022-12-24T12:24:53;101066.81;;;10.63;100.00
49216;BME280;45943;53.148;8.204;2022-12-24T12:27:26;101071.94;;;10.66;100.00
49216;BME280;45943;53.148;8.204;2022-12-24T12:30:13;101078.53;;;10.62;100.00
49216;BME280;45943;53.148;8.204;2022-12-24T12:35:39;101090.81;;;10.53;100.00
49216;BME280;45943;53.148;8.204;2022-12-24T12:38:09;101085.66;;;10.50;100.00
49216;BME280;45943;53.148;8.204;2022-12-24T12:46:39;101095.53;;;10.50;100.00
49216;BME280;45943;53.148;8.204;2022-12-24T12:49:22;101099.81;;;10.52;100.00
49216;BME280;45943;53.148;8.204;2022-12-24T12:51:56;101103.56;;;10.50;100.00
49216;BME280;45943;53.148;8.204;2022-12-24T12:54:56;101103.44;;;10.51;100.00
49216;BME280;45943;53.148;8.204;2022-12-24T12:57:31;101098.09;;;10.51;100.00
49216;BME280;45943;53.148;8.204;2022-12-24T13:00:11;101098.59;;;10.56;100.00
49216;BME280;45943;53.148;8.204;2022-12-24T13:08:37;101098.09;;;10.51;100.00
49216;BME280;45943;53.148;8.204;2022-12-24T13:11:38;101101.28;;;10.56;100.00
49216;BME280;45943;53.148;8.204;2022-12-24T13:22:48;101123.88;;;10.65;100.00
49216;BME280;45943;53.148;8.204;2022-12-24T13:25:38;101117.53;;;10.66;100.00
49216;BME280;45943;53.148;8.204;2022-12-24T13:28:16;101118.63;;;10.63;100.00
49216;BME280;45943;53.148;8.204;2022-12-24T13:36:04;101138.47;;;10.61;100.00
49216;BME280;45943;53.148;8.204;2022-12-24T13:57:37;101156.25;;;10.86;100.00
49216;BME280;45943;53.148;8.204;2022-12-24T14:00:23;101151.00;;;10.84;100.00
49216;BME280;45943;53.148;8.204;2022-12-24T14:05:26;101163.19;;;10.77;100.00
49216;BME280;45943;53.148;8.204;2022-12-24T14:16:10;101172.44;;;10.73;100.00
49216;BME280;45943;53.148;8.204;2022-12-24T14:18:40;101175.47;;;10.69;100.00
49216;BME280;45943;53.148;8.204;2022-12-24T14:24:26;101186.44;;;10.66;100.00
49216;BME280;45943;53.148;8.204;2022-12-24T14:26:58;101185.72;;;10.63;100.00
49216;BME280;45943;53.148;8.204;2022-12-24T14:29:34;101190.31;;;10.61;100.00
49216;BME280;45943;53.148;8.204;2022-12-24T14:32:16;101203.34;;;10.55;100.00
49216;BME280;45943;53.148;8.204;2022-12-24T14:34:43;101205.38;;;10.51;100.00
49216;BME280;45943;53.148;8.204;2022-12-24T14:37:09;101208.28;;;10.48;100.00
49216;BME280;45943;53.148;8.204;2022-12-24T14:39:40;101224.28;;;10.50;100.00
49216;BME280;45943;53.148;8.204;2022-12-24T14:45:04;101229.00;;;10.46;100.00
49216;BME280;45943;53.148;8.204;2022-12-24T14:47:47;101230.97;;;10.44;100.00
49216;BME280;45943;53.148;8.204;2022-12-24T14:55:31;101230.50;;;10.50;100.00
49216;BME280;45943;53.148;8.204;2022-12-24T15:00:49;101255.09;;;10.44;100.00
49216;BME280;45943;53.148;8.204;2022-12-24T15:03:16;101254.38;;;10.42;100.00
49216;BME280;45943;53.148;8.204;2022-12-24T15:05:49;101255.66;;;10.37;100.00
49216;BME280;45943;53.148;8.204;2022-12-24T15:08:17;101276.25;;;10.36;100.00
49216;BME280;45943;53.148;8.204;2022-12-24T15:10:49;101280.09;;;10.32;100.00
49216;BME280;45943;53.148;8.204;2022-12-24T15:13:22;101288.25;;;10.30;100.00
49216;BME280;45943;53.148;8.204;2022-12-24T15:15:53;101290.94;;;10.30;100.00
49216;BME280;45943;53.148;8.204;2022-12-24T15:18:21;101295.56;;;10.28;100.00
49216;BME280;45943;53.148;8.204;2022-12-24T15:20:53;101302.00;;;10.26;100.00
49216;BME280;45943;53.148;8.204;2022-12-24T15:23:26;101295.91;;;10.24;100.00